createdAt,value
2022-10-05T00:01:21.062Z,83.74
2022-10-05T00:03:48.259Z,81.82
2022-10-05T00:06:15.510Z,81.56
2022-10-05T00:08:42.409Z,82.03
2022-10-05T00:11:09.593Z,83.19
2022-10-05T00:13:36.490Z,83.90
2022-10-05T00:16:17.079Z,82.13
2022-10-05T00:18:51.924Z,81.20
2022-10-05T00:21:23.185Z,81.72
2022-10-05T00:23:50.475Z,82.53
2022-10-05T00:26:22.127Z,83.68
2022-10-05T00:28:49.343Z,83.16
2022-10-05T00:31:24.314Z,82.01
2022-10-05T00:33:51.649Z,82.15
2022-10-05T00:36:18.779Z,83.24
2022-10-05T00:38:45.826Z,84.17
2022-10-05T00:41:18.753Z,83.06
2022-10-05T00:44:04.142Z,81.67
2022-10-05T00:46:57.662Z,81.96
2022-10-05T00:49:46.457Z,82.17
2022-10-05T00:52:28.783Z,83.35
2022-10-05T00:55:19.729Z,82.63
2022-10-05T00:57:59.426Z,80.86
2022-10-05T01:00:26.461Z,81.54
2022-10-05T01:03:22.170Z,82.02
2022-10-05T01:05:58.653Z,82.88
2022-10-05T01:08:50.828Z,82.73
2022-10-05T01:11:28.384Z,80.95
2022-10-05T01:14:22.618Z,80.81
2022-10-05T01:16:52.130Z,81.69
2022-10-05T01:19:44.365Z,82.87
2022-10-05T01:22:52.481Z,82.84
2022-10-05T01:25:47.678Z,81.09
2022-10-05T01:28:18.866Z,80.59
2022-10-05T01:31:09.002Z,81.28
2022-10-05T01:33:48.761Z,82.20
2022-10-05T01:36:28.895Z,82.08
2022-10-05T01:39:17.559Z,80.09
2022-10-05T01:42:18.160Z,79.73
2022-10-05T01:44:51.693Z,80.33
2022-10-05T01:47:46.074Z,81.39
2022-10-05T01:50:28.954Z,82.38
2022-10-05T01:53:02.048Z,80.44
2022-10-05T01:55:32.337Z,79.41
2022-10-05T01:58:04.062Z,79.76
2022-10-05T02:00:33.405Z,80.13
2022-10-05T02:03:05.072Z,80.99
2022-10-05T02:05:41.421Z,80.61
2022-10-05T02:08:37.424Z,78.46
2022-10-05T02:11:09.190Z,79.16
2022-10-05T02:13:58.953Z,79.53
2022-10-05T02:16:33.615Z,80.73
2022-10-05T02:19:14.824Z,81.53
2022-10-05T02:21:45.010Z,79.72
2022-10-05T02:24:19.270Z,78.55
2022-10-05T02:26:46.407Z,78.70
2022-10-05T02:29:13.618Z,79.94
2022-10-05T02:31:46.158Z,80.64
2022-10-05T02:34:30.028Z,81.11
2022-10-05T02:37:34.524Z,79.17
2022-10-05T02:40:14.302Z,78.50
2022-10-05T02:43:00.521Z,79.34
2022-10-05T02:45:30.849Z,80.41
2022-10-05T02:48:11.519Z,80.93
2022-10-05T02:51:01.666Z,79.77
2022-10-05T02:53:37.193Z,77.92
2022-10-05T02:56:28.844Z,78.11
2022-10-05T02:59:21.828Z,79.11
2022-10-05T03:01:50.961Z,80.09
2022-10-05T03:04:34.426Z,80.95
2022-10-05T03:07:18.263Z,79.80
2022-10-05T03:12:20.425Z,78.20
2022-10-05T03:14:56.781Z,79.09
2022-10-05T03:17:31.068Z,80.15
2022-10-05T03:20:26.343Z,80.95
2022-10-05T03:22:58.818Z,79.72
2022-10-05T03:25:47.775Z,78.75
2022-10-05T03:28:31.879Z,79.07
2022-10-05T03:31:03.626Z,80.11
2022-10-05T03:33:37.979Z,81.51
2022-10-05T03:36:18.937Z,81.60
2022-10-05T03:39:09.565Z,80.03
2022-10-05T03:41:59.932Z,80.10
2022-10-05T03:45:09.096Z,81.17
2022-10-05T03:47:45.872Z,82.28
2022-10-05T03:50:52.041Z,82.44
2022-10-05T03:53:21.033Z,80.97
2022-10-05T03:55:48.897Z,80.87
2022-10-05T03:58:32.019Z,81.22
2022-10-05T04:01:02.462Z,82.43
2022-10-05T04:03:41.370Z,82.97
2022-10-05T04:06:13.684Z,81.44
2022-10-05T04:08:47.782Z,81.04
2022-10-05T04:11:21.799Z,81.47
2022-10-05T04:14:01.508Z,82.22
2022-10-05T04:16:34.961Z,82.88
2022-10-05T04:19:17.618Z,81.65
2022-10-05T04:21:49.232Z,80.32
2022-10-05T04:24:34.959Z,80.81
2022-10-05T04:27:15.129Z,81.78
2022-10-05T04:29:53.939Z,83.18
2022-10-05T04:32:42.506Z,81.51
2022-10-05T04:35:16.191Z,79.94
2022-10-05T04:37:58.395Z,80.33
2022-10-05T04:40:37.832Z,81.42
2022-10-05T04:43:30.085Z,82.44
2022-10-05T04:46:25.640Z,81.76
2022-10-05T04:49:19.078Z,80.49
2022-10-05T04:52:02.294Z,80.55
2022-10-05T04:55:05.272Z,81.81
2022-10-05T04:58:17.074Z,82.78
2022-10-05T05:01:02.369Z,80.97
2022-10-05T05:04:00.651Z,80.55
2022-10-05T05:06:37.441Z,81.10
2022-10-05T05:09:35.686Z,82.11
2022-10-05T05:12:09.481Z,82.22
2022-10-05T05:14:59.215Z,80.80
2022-10-05T05:17:47.532Z,80.64
2022-10-05T05:20:28.206Z,82.07
2022-10-05T05:23:07.708Z,82.60
2022-10-05T05:25:44.386Z,82.44
2022-10-05T05:28:34.032Z,81.12
2022-10-05T05:31:10.463Z,81.13
2022-10-05T05:34:03.511Z,81.93
2022-10-05T05:36:49.213Z,82.66
2022-10-05T05:39:29.685Z,82.07
2022-10-05T05:42:00.554Z,81.34
2022-10-05T05:44:33.278Z,81.88
2022-10-05T05:47:05.432Z,82.10
2022-10-05T05:50:01.783Z,82.76
2022-10-05T05:52:45.488Z,82.73
2022-10-05T05:55:34.484Z,80.72
2022-10-05T05:58:17.189Z,81.03
2022-10-05T06:01:20.301Z,81.66
2022-10-05T06:03:59.996Z,81.67
2022-10-05T06:06:30.778Z,82.31
2022-10-05T06:09:00.831Z,80.58
2022-10-05T06:12:23.711Z,79.34
2022-10-05T06:14:53.486Z,79.88
2022-10-05T06:17:39.439Z,80.67
2022-10-05T06:20:14.129Z,81.63
2022-10-05T06:22:42.823Z,80.01
2022-10-05T06:25:17.234Z,78.91
2022-10-05T06:28:09.767Z,78.81
2022-10-05T06:31:33.303Z,79.97
2022-10-05T06:34:19.522Z,80.52
2022-10-05T06:36:51.634Z,79.60
2022-10-05T06:39:44.264Z,77.70
2022-10-05T06:42:23.603Z,76.97
2022-10-05T06:45:54.310Z,77.25
2022-10-05T06:48:53.950Z,79.30
2022-10-05T06:52:27.733Z,78.76
2022-10-05T06:55:18.464Z,75.58
2022-10-05T06:58:15.334Z,75.13
2022-10-05T07:01:04.445Z,75.30
2022-10-05T07:03:44.270Z,74.71
2022-10-05T07:06:34.599Z,75.27
2022-10-05T07:09:08.833Z,75.59
2022-10-05T07:11:41.754Z,73.23
2022-10-05T07:14:31.510Z,71.29
2022-10-05T07:17:08.681Z,71.50
2022-10-05T07:20:22.522Z,72.32
2022-10-05T07:23:14.519Z,71.90
2022-10-05T07:25:46.826Z,72.07
2022-10-05T07:28:41.482Z,72.18
2022-10-05T07:31:24.852Z,72.13
2022-10-05T07:34:09.963Z,70.33
2022-10-05T07:37:02.572Z,69.57
2022-10-05T07:40:00.442Z,67.83
2022-10-05T07:42:44.564Z,68.58
2022-10-05T07:45:24.934Z,68.25
2022-10-05T07:47:55.336Z,68.88
2022-10-05T07:50:30.001Z,69.12
2022-10-05T07:53:07.192Z,69.45
2022-10-05T07:55:37.109Z,69.34
2022-10-05T07:58:23.710Z,69.26
2022-10-05T08:01:17.175Z,67.60
2022-10-05T08:04:11.357Z,67.62
2022-10-05T08:06:51.274Z,67.64
2022-10-05T08:09:33.903Z,66.59
2022-10-05T08:12:24.106Z,66.98
2022-10-05T08:15:03.558Z,67.42
2022-10-05T08:17:46.260Z,68.15
2022-10-05T08:20:37.842Z,68.02
2022-10-05T08:23:10.984Z,67.82
2022-10-05T08:26:05.570Z,68.23
2022-10-05T08:28:38.954Z,65.93
2022-10-05T08:31:06.273Z,66.46
2022-10-05T08:34:00.070Z,65.85
2022-10-05T08:36:39.561Z,64.47
2022-10-05T08:39:12.625Z,64.98
2022-10-05T08:41:54.986Z,64.38
2022-10-05T08:45:03.477Z,64.58
2022-10-05T08:47:52.510Z,64.25
2022-10-05T08:50:35.050Z,64.00
2022-10-05T08:53:12.471Z,63.98
2022-10-05T08:56:19.718Z,65.14
2022-10-05T08:59:09.132Z,62.84
2022-10-05T09:02:01.305Z,63.86
2022-10-05T09:04:50.476Z,62.37
2022-10-05T09:07:38.817Z,62.63
2022-10-05T09:10:41.504Z,63.39
2022-10-05T09:13:24.425Z,61.85
2022-10-05T09:16:03.956Z,61.42
2022-10-05T09:18:53.082Z,60.79
2022-10-05T09:22:02.471Z,58.67
2022-10-05T09:25:02.082Z,57.87
2022-10-05T09:27:37.214Z,56.98
2022-10-05T09:30:19.523Z,57.97
2022-10-05T09:33:08.171Z,58.31
2022-10-05T09:36:05.483Z,59.17
2022-10-05T09:39:10.602Z,57.90
2022-10-05T09:42:15.610Z,58.82
2022-10-05T09:45:01.823Z,57.76
2022-10-05T09:48:00.096Z,58.08
2022-10-05T09:50:48.642Z,56.72
2022-10-05T09:53:40.724Z,57.20
2022-10-05T09:56:21.520Z,57.65
2022-10-05T09:59:16.437Z,56.74
2022-10-05T10:01:57.763Z,58.43
2022-10-05T10:05:06.032Z,57.75
2022-10-05T10:07:48.852Z,57.39
2022-10-05T10:10:15.897Z,57.27
2022-10-05T10:12:45.930Z,57.51
2022-10-05T10:15:28.551Z,56.99
2022-10-05T10:18:11.401Z,56.56
2022-10-05T10:20:53.169Z,57.67
2022-10-05T10:23:26.547Z,58.04
2022-10-05T10:26:03.762Z,56.91
2022-10-05T10:28:54.351Z,56.44
2022-10-05T10:32:12.929Z,57.53
2022-10-05T10:34:42.745Z,56.79
2022-10-05T10:37:34.824Z,55.81
2022-10-05T10:40:20.812Z,55.23
2022-10-05T10:43:06.306Z,56.53
2022-10-05T10:45:54.031Z,55.36
2022-10-05T10:48:30.148Z,55.15
2022-10-05T10:51:06.348Z,55.90
2022-10-05T10:53:57.866Z,56.87
2022-10-05T10:56:47.594Z,55.83
2022-10-05T10:59:30.743Z,56.44
2022-10-05T11:02:20.036Z,56.04
2022-10-05T11:04:56.509Z,55.00
2022-10-05T11:07:26.363Z,54.67
2022-10-05T11:10:12.415Z,54.32
2022-10-05T11:12:54.720Z,54.82
2022-10-05T11:15:49.606Z,55.32
2022-10-05T11:18:20.656Z,55.12
2022-10-05T11:21:11.997Z,55.10
2022-10-05T11:23:48.654Z,56.15
2022-10-05T11:26:37.560Z,55.90
2022-10-05T11:29:41.733Z,55.33
2022-10-05T11:32:34.585Z,55.34
2022-10-05T11:35:20.680Z,54.57
2022-10-05T11:38:12.507Z,55.02
2022-10-05T11:41:02.492Z,55.73
2022-10-05T11:43:37.505Z,55.24
2022-10-05T11:46:08.995Z,55.90
2022-10-05T11:48:51.484Z,56.59
2022-10-05T11:51:27.801Z,56.75
2022-10-05T11:54:19.099Z,57.10
2022-10-05T11:57:08.242Z,56.79
2022-10-05T11:59:41.614Z,56.99
2022-10-05T12:02:29.008Z,56.01
2022-10-05T12:05:11.560Z,56.10
2022-10-05T12:08:03.188Z,57.21
2022-10-05T12:11:08.250Z,56.73
2022-10-05T12:13:40.629Z,56.19
2022-10-05T12:16:22.898Z,56.90
2022-10-05T12:19:18.931Z,57.20
2022-10-05T12:22:04.382Z,57.70
2022-10-05T12:24:37.344Z,57.75
2022-10-05T12:27:24.508Z,58.26
2022-10-05T12:29:57.497Z,58.55
2022-10-05T12:33:02.180Z,58.42
2022-10-05T12:35:49.453Z,58.56
2022-10-05T12:38:41.211Z,58.67
2022-10-05T12:41:14.793Z,59.87
2022-10-05T12:43:50.942Z,58.90
2022-10-05T12:46:49.806Z,58.72
2022-10-05T12:49:29.120Z,59.16
2022-10-05T12:52:04.631Z,58.69
2022-10-05T12:54:48.555Z,59.21
2022-10-05T12:57:45.544Z,58.95
2022-10-05T13:00:22.464Z,59.58
2022-10-05T13:03:25.516Z,60.47
2022-10-05T13:06:02.613Z,59.85
2022-10-05T13:08:39.163Z,59.84
2022-10-05T13:11:17.164Z,60.32
2022-10-05T13:13:59.549Z,59.81
2022-10-05T13:16:32.550Z,59.59
2022-10-05T13:19:32.331Z,60.11
2022-10-05T13:22:20.995Z,60.23
2022-10-05T13:25:00.327Z,60.43
2022-10-05T13:27:30.043Z,60.53
2022-10-05T13:30:16.235Z,59.92
2022-10-05T13:32:46.687Z,60.04
2022-10-05T13:35:18.830Z,60.58
2022-10-05T13:38:11.824Z,61.06
2022-10-05T13:40:45.175Z,61.39
2022-10-05T13:43:50.322Z,61.19
2022-10-05T13:46:47.368Z,62.18
2022-10-05T13:49:22.280Z,61.89
2022-10-05T13:52:01.603Z,61.83
2022-10-05T13:54:52.858Z,61.65
2022-10-05T13:58:07.923Z,62.06
2022-10-05T14:00:41.781Z,62.13
2022-10-05T14:03:30.405Z,62.33
2022-10-05T14:05:59.436Z,63.14
2022-10-05T14:08:36.412Z,63.43
2022-10-05T14:11:21.476Z,63.44
2022-10-05T14:13:48.583Z,63.29
2022-10-05T14:16:23.710Z,63.57
2022-10-05T14:18:59.771Z,64.56
2022-10-05T14:21:29.729Z,63.90
2022-10-05T14:23:59.813Z,64.05
2022-10-05T14:26:27.581Z,64.19
2022-10-05T14:29:20.842Z,64.65
2022-10-05T14:32:00.247Z,64.48
2022-10-05T14:34:35.134Z,65.30
2022-10-05T14:37:23.360Z,66.07
2022-10-05T14:39:52.072Z,64.53
2022-10-05T14:42:20.443Z,62.58
2022-10-05T14:44:59.531Z,62.71
2022-10-05T14:47:30.472Z,62.65
2022-10-05T14:50:14.232Z,62.93
2022-10-05T14:52:51.667Z,64.02
2022-10-05T14:55:38.006Z,64.62
2022-10-05T14:58:17.365Z,65.20
2022-10-05T15:01:13.948Z,65.26
2022-10-05T15:03:48.813Z,65.68
2022-10-05T15:06:33.677Z,66.78
2022-10-05T15:09:17.464Z,66.96
2022-10-05T15:11:58.701Z,67.42
2022-10-05T15:14:34.767Z,66.78
2022-10-05T15:17:03.608Z,64.55
2022-10-05T15:19:36.986Z,64.20
2022-10-05T15:22:04.096Z,64.93
2022-10-05T15:24:44.247Z,65.66
2022-10-05T15:27:18.035Z,66.66
2022-10-05T15:29:55.791Z,67.32
2022-10-05T15:32:45.019Z,67.97
2022-10-05T15:35:38.906Z,68.70
2022-10-05T15:38:26.764Z,69.44
2022-10-05T15:41:38.588Z,69.90
2022-10-05T15:44:15.116Z,68.54
2022-10-05T15:46:56.658Z,67.04
2022-10-05T15:49:39.502Z,67.18
2022-10-05T15:52:24.168Z,67.66
2022-10-05T15:55:25.209Z,68.61
2022-10-05T15:58:17.757Z,69.81
2022-10-05T16:00:47.777Z,70.67
2022-10-05T16:03:40.908Z,71.89
2022-10-05T16:06:43.743Z,72.22
2022-10-05T16:09:18.149Z,70.67
2022-10-05T16:12:03.450Z,69.86
2022-10-05T16:15:08.984Z,70.29
2022-10-05T16:17:55.521Z,71.14
2022-10-05T16:20:26.083Z,71.94
2022-10-05T16:22:59.830Z,72.71
2022-10-05T16:26:00.986Z,73.05
2022-10-05T16:28:47.686Z,71.81
2022-10-05T16:31:37.639Z,71.04
2022-10-05T16:34:11.169Z,71.20
2022-10-05T16:36:58.969Z,71.96
2022-10-05T16:39:41.374Z,72.71
2022-10-05T16:42:28.913Z,73.24
2022-10-05T16:45:01.357Z,73.99
2022-10-05T16:47:59.253Z,72.62
2022-10-05T16:50:43.383Z,71.60
2022-10-05T16:53:23.482Z,72.04
2022-10-05T16:55:57.463Z,72.69
2022-10-05T16:58:31.482Z,72.99
2022-10-05T17:01:20.078Z,74.12
2022-10-05T17:04:06.015Z,74.84
2022-10-05T17:06:37.400Z,72.78
2022-10-05T17:09:19.766Z,71.74
2022-10-05T17:12:11.084Z,71.57
2022-10-05T17:14:49.606Z,72.21
2022-10-05T17:17:33.338Z,73.08
2022-10-05T17:20:00.263Z,74.47
2022-10-05T17:22:28.667Z,74.95
2022-10-05T17:25:18.437Z,75.39
2022-10-05T17:27:56.403Z,73.82
2022-10-05T17:30:29.636Z,72.31
2022-10-05T17:33:11.970Z,72.31
2022-10-05T17:35:52.207Z,72.12
2022-10-05T17:38:23.755Z,73.36
2022-10-05T17:41:00.540Z,74.01
2022-10-05T17:43:31.574Z,74.82
2022-10-05T17:46:00.797Z,74.59
2022-10-05T17:48:38.059Z,73.53
2022-10-05T17:51:36.378Z,74.11
2022-10-05T17:54:39.547Z,74.94
2022-10-05T17:57:06.680Z,75.63
2022-10-05T17:59:44.806Z,76.43
2022-10-05T18:02:22.236Z,75.00
2022-10-05T18:05:05.093Z,73.63
2022-10-05T18:07:33.612Z,73.50
2022-10-05T18:10:09.958Z,73.35
2022-10-05T18:12:47.337Z,74.02
2022-10-05T18:15:21.439Z,75.34
2022-10-05T18:18:19.110Z,76.07
2022-10-05T18:21:14.369Z,74.96
2022-10-05T18:24:02.468Z,73.48
2022-10-05T18:26:44.848Z,73.53
2022-10-05T18:30:00.378Z,74.22
2022-10-05T18:32:50.025Z,75.41
2022-10-05T18:35:48.321Z,75.94
2022-10-05T18:38:31.456Z,74.64
2022-10-05T18:41:27.146Z,73.23
2022-10-05T18:44:06.492Z,73.55
2022-10-05T18:46:46.118Z,74.17
2022-10-05T18:49:38.317Z,75.69
2022-10-05T18:52:10.826Z,76.31
2022-10-05T18:54:56.851Z,75.31
2022-10-05T18:57:47.174Z,74.81
2022-10-05T19:00:19.289Z,74.95
2022-10-05T19:02:58.728Z,75.48
2022-10-05T19:05:47.522Z,75.91
2022-10-05T19:08:15.551Z,76.55
2022-10-05T19:11:06.068Z,74.68
2022-10-05T19:14:11.599Z,74.31
2022-10-05T19:16:52.270Z,74.95
2022-10-05T19:19:44.023Z,75.58
2022-10-05T19:22:23.536Z,76.14
2022-10-05T19:25:26.379Z,74.56
2022-10-05T19:28:15.656Z,73.55
2022-10-05T19:30:52.370Z,73.97
2022-10-05T19:33:26.473Z,74.35
2022-10-05T19:36:24.731Z,75.21
2022-10-05T19:38:57.829Z,75.62
2022-10-05T19:41:56.330Z,73.96
2022-10-05T19:44:32.595Z,72.74
2022-10-05T19:47:17.865Z,72.90
2022-10-05T19:49:56.997Z,73.89
2022-10-05T19:52:47.542Z,74.80
2022-10-05T19:55:26.373Z,75.23
2022-10-05T19:57:55.103Z,74.03
2022-10-05T20:00:27.578Z,73.04
2022-10-05T20:03:12.509Z,73.40
2022-10-05T20:05:39.822Z,73.33
2022-10-05T20:08:07.470Z,74.13
2022-10-05T20:10:34.615Z,75.02
2022-10-05T20:13:05.169Z,73.64
2022-10-05T20:15:52.388Z,72.46
2022-10-05T20:19:10.713Z,72.59
2022-10-05T20:21:42.289Z,73.07
2022-10-05T20:24:20.488Z,74.09
2022-10-05T20:27:06.940Z,74.43
2022-10-05T20:29:38.731Z,74.51
2022-10-05T20:32:18.024Z,72.94
2022-10-05T20:34:46.682Z,72.17
2022-10-05T20:37:15.682Z,72.66
2022-10-05T20:39:43.100Z,73.02
2022-10-05T20:42:10.255Z,74.05
2022-10-05T20:44:37.535Z,74.54
2022-10-05T20:47:05.835Z,73.67
2022-10-05T20:49:34.567Z,72.26
2022-10-05T20:52:01.618Z,72.04
2022-10-05T20:54:28.869Z,72.32
2022-10-05T20:56:55.959Z,72.87
2022-10-05T20:59:24.189Z,73.75
2022-10-05T21:01:51.580Z,74.05
2022-10-05T21:04:23.301Z,73.10
2022-10-05T21:06:50.492Z,72.11
2022-10-05T21:09:19.678Z,72.43
2022-10-05T21:11:47.540Z,72.56
2022-10-05T21:14:14.668Z,73.08
2022-10-05T21:16:43.090Z,73.79
2022-10-05T21:19:12.296Z,74.45
2022-10-05T21:21:40.517Z,72.71
2022-10-05T21:24:08.283Z,72.18
2022-10-05T21:26:35.222Z,72.37
2022-10-05T21:29:02.785Z,72.98
2022-10-05T21:31:29.971Z,73.37
2022-10-05T21:33:57.392Z,73.76
2022-10-05T21:36:24.837Z,73.22
2022-10-05T21:38:53.123Z,72.01
2022-10-05T21:41:20.751Z,71.79
2022-10-05T21:43:47.938Z,72.10
2022-10-05T21:46:20.401Z,72.54
2022-10-05T21:48:47.678Z,73.26
2022-10-05T21:51:16.862Z,74.12
2022-10-05T21:53:51.165Z,73.30
2022-10-05T21:56:19.402Z,72.02
2022-10-05T21:58:46.502Z,71.99
2022-10-05T22:01:15.934Z,72.37
2022-10-05T22:03:45.273Z,73.18
2022-10-05T22:06:12.558Z,73.63
2022-10-05T22:08:39.707Z,74.33
2022-10-05T22:11:15.408Z,73.76
2022-10-05T22:13:50.189Z,72.17
2022-10-05T22:16:18.609Z,71.81
2022-10-05T22:18:45.818Z,72.26
2022-10-05T22:21:13.378Z,73.04
2022-10-05T22:23:41.287Z,74.34
2022-10-05T22:26:09.213Z,75.27
2022-10-05T22:28:36.903Z,74.64
2022-10-05T22:31:04.972Z,73.51
2022-10-05T22:33:32.132Z,73.05
2022-10-05T22:35:59.758Z,73.57
2022-10-05T22:38:27.032Z,73.41
2022-10-05T22:40:54.356Z,74.45
2022-10-05T22:43:21.387Z,75.57
2022-10-05T22:45:48.381Z,75.43
2022-10-05T22:48:16.230Z,74.03
2022-10-05T22:50:46.891Z,73.71
2022-10-05T22:53:14.106Z,74.52
2022-10-05T22:55:41.259Z,75.14
2022-10-05T22:58:08.313Z,76.04
2022-10-05T23:00:57.059Z,76.80
2022-10-05T23:03:22.366Z,74.76
2022-10-05T23:05:58.604Z,74.31
2022-10-05T23:08:25.932Z,74.42
2022-10-05T23:10:53.346Z,75.29
2022-10-05T23:13:22.741Z,75.42
2022-10-05T23:15:50.095Z,76.32
2022-10-05T23:18:17.351Z,75.86
2022-10-05T23:20:44.326Z,74.13
2022-10-05T23:23:11.335Z,73.50
2022-10-05T23:25:38.389Z,73.76
2022-10-05T23:28:05.492Z,74.08
2022-10-05T23:30:32.650Z,75.23
2022-10-05T23:32:59.839Z,76.12
2022-10-05T23:35:26.982Z,75.81
2022-10-05T23:37:54.080Z,74.58
2022-10-05T23:40:21.296Z,74.14
2022-10-05T23:42:48.475Z,74.28
2022-10-05T23:45:16.504Z,75.16
2022-10-05T23:47:43.551Z,76.10
2022-10-05T23:50:10.735Z,77.00
2022-10-05T23:52:37.856Z,75.84
2022-10-05T23:55:05.867Z,74.52
2022-10-05T23:57:32.897Z,74.37
